Time;durP1;ratioP1;P1;durP2;ratioP2;P2;SDS_P1;SDS_P2;PMS_P1;PMS_P2;Temp;Humidity;BMP_temperature;BMP_pressure;BME280_temperature;BME280_humidity;BME280_pressure;Samples;Min_cycle;Max_cycle;Signal;HPM_P1;HPM_P2
2022/06/08 00:00:47;;;;;;;2.33;2.00;;;18.20;99.90;;;;;;6128220;23;20432;-83
2022/06/08 00:03:19;;;;;;;2.50;2.30;;;17.90;99.90;;;;;;6127388;23;20435;-82
2022/06/08 00:05:46;;;;;;;2.40;2.20;;;17.90;99.90;;;;;;6101503;23;20876;-83
2022/06/08 00:08:12;;;;;;;3.40;2.67;;;17.90;99.90;;;;;;6106095;23;20716;-83
2022/06/08 00:10:40;;;;;;;2.83;2.50;;;18.00;99.90;;;;;;6127772;23;20514;-83
2022/06/08 00:13:07;;;;;;;3.80;2.53;;;18.00;99.90;;;;;;6128187;23;20416;-84
2022/06/08 00:15:34;;;;;;;3.40;2.30;;;17.80;99.90;;;;;;6127969;23;20419;-82
2022/06/08 00:18:01;;;;;;;2.40;2.20;;;17.70;99.90;;;;;;6127782;23;20415;-83
2022/06/08 00:20:28;;;;;;;2.30;2.20;;;17.80;99.90;;;;;;6102951;23;20523;-83
2022/06/08 00:22:55;;;;;;;4.30;3.03;;;18.00;99.90;;;;;;6129059;23;20975;-81
2022/06/08 00:25:22;;;;;;;3.97;2.10;;;18.00;99.90;;;;;;6129915;23;20404;-83
2022/06/08 00:27:49;;;;;;;2.50;2.30;;;18.10;99.90;;;;;;6128834;23;20419;-82
2022/06/08 00:30:16;;;;;;;2.60;2.40;;;18.10;99.90;;;;;;6128611;23;20428;-81
2022/06/08 00:32:42;;;;;;;2.53;2.20;;;17.80;99.90;;;;;;6103261;23;20411;-81
2022/06/08 00:35:09;;;;;;;1.80;1.70;;;17.80;99.90;;;;;;6128123;23;20942;-83
2022/06/08 00:37:36;;;;;;;2.87;2.57;;;17.90;99.90;;;;;;6129264;23;20416;-82
2022/06/08 00:40:04;;;;;;;3.60;2.00;;;17.80;99.90;;;;;;6128800;23;20446;-81
2022/06/08 00:42:30;;;;;;;3.00;2.53;;;17.80;99.90;;;;;;6129578;23;20419;-83
2022/06/08 00:45:04;;;;;;;2.90;2.40;;;17.80;99.90;;;;;;6129230;23;20445;-81
2022/06/08 00:47:36;;;;;;;3.03;2.10;;;17.90;99.90;;;;;;6103457;23;20395;-82
2022/06/08 00:50:12;;;;;;;2.40;2.20;;;17.90;99.90;;;;;;6104159;23;20440;-83
2022/06/08 00:52:39;;;;;;;2.07;1.97;;;17.70;99.90;;;;;;6129696;23;20426;-83
2022/06/08 00:55:10;;;;;;;2.30;2.10;;;17.80;99.90;;;;;;6138405;23;20420;-83
2022/06/08 00:57:42;;;;;;;2.40;2.20;;;17.70;99.90;;;;;;6127898;23;20412;-82
2022/06/08 01:00:11;;;;;;;2.47;1.97;;;17.70;99.90;;;;;;6128871;23;20888;-84
2022/06/08 01:02:38;;;;;;;2.30;2.10;;;17.60;99.90;;;;;;6128493;23;20450;-82
2022/06/08 01:05:19;;;;;;;3.50;2.30;;;17.70;99.90;;;;;;6128267;23;20507;-83
2022/06/08 01:07:47;;;;;;;4.03;2.13;;;17.90;99.90;;;;;;6128059;23;20412;-82
2022/06/08 01:10:17;;;;;;;2.20;2.00;;;17.70;99.90;;;;;;6128092;23;20432;-84
2022/06/08 01:12:44;;;;;;;2.30;2.10;;;17.70;99.90;;;;;;6128600;23;20430;-82
2022/06/08 01:15:18;;;;;;;2.10;1.90;;;17.70;99.90;;;;;;6102604;23;20423;-83
2022/06/08 01:17:44;;;;;;;2.20;2.00;;;17.70;99.90;;;;;;6101935;23;20414;-83
2022/06/08 01:20:12;;;;;;;2.50;1.80;;;17.90;99.90;;;;;;6127376;23;20436;-82
2022/06/08 01:22:40;;;;;;;2.57;2.37;;;18.10;99.90;;;;;;6127663;23;20423;-82
2022/06/08 01:25:09;;;;;;;2.83;2.40;;;18.00;99.90;;;;;;6127664;23;20447;-82
2022/06/08 01:27:41;;;;;;;3.07;2.30;;;17.90;99.90;;;;;;6127177;23;20410;-82
2022/06/08 01:30:13;;;;;;;2.37;2.17;;;17.90;99.90;;;;;;6127131;23;20442;-82
2022/06/08 01:33:00;;;;;;;5.30;3.17;;;17.80;99.90;;;;;;6102179;23;20772;-82
2022/06/08 01:35:41;;;;;;;2.57;2.30;;;17.80;99.90;;;;;;6127162;23;20400;-83
2022/06/08 01:38:16;;;;;;;4.40;2.23;;;17.70;99.90;;;;;;6126764;23;20744;-82
2022/06/08 01:41:09;;;;;;;2.10;2.00;;;17.60;99.90;;;;;;6126809;23;20436;-82
2022/06/08 01:43:58;;;;;;;2.60;2.40;;;17.60;99.90;;;;;;6127817;23;20762;-82
2022/06/08 01:46:32;;;;;;;3.57;2.10;;;17.50;99.90;;;;;;6127246;23;20399;-82
2022/06/08 01:49:19;;;;;;;2.70;2.50;;;17.50;99.90;;;;;;6126830;23;20400;-82
2022/06/08 01:52:09;;;;;;;3.90;2.40;;;17.30;99.90;;;;;;6102757;23;20442;-83
2022/06/08 01:55:01;;;;;;;3.10;2.33;;;17.30;99.90;;;;;;6100644;23;20420;-83
2022/06/08 01:57:56;;;;;;;4.40;2.10;;;17.30;99.90;;;;;;6127295;23;20402;-82
2022/06/08 02:00:32;;;;;;;3.37;2.20;;;17.10;99.90;;;;;;6101655;23;20438;-82
2022/06/08 02:03:04;;;;;;;3.50;2.23;;;17.10;99.90;;;;;;6101541;23;20403;-82
2022/06/08 02:05:44;;;;;;;3.23;2.97;;;17.20;99.90;;;;;;6126364;23;20943;-82
2022/06/08 02:08:28;;;;;;;2.50;2.30;;;17.20;99.90;;;;;;6127118;23;20421;-83
2022/06/08 02:10:58;;;;;;;4.07;2.23;;;17.20;99.90;;;;;;6127185;23;20753;-81
2022/06/08 02:13:30;;;;;;;3.10;1.73;;;17.30;99.90;;;;;;6127950;23;20400;-83
2022/06/08 02:16:16;;;;;;;2.43;2.33;;;17.30;99.90;;;;;;6127382;23;20396;-83
2022/06/08 02:18:51;;;;;;;3.90;2.30;;;17.40;99.90;;;;;;6103818;23;20399;-83
2022/06/08 02:21:27;;;;;;;2.50;2.23;;;17.50;99.90;;;;;;6128326;23;20443;-84
2022/06/08 02:24:09;;;;;;;2.33;2.13;;;17.40;99.90;;;;;;6128522;23;20424;-83
2022/06/08 02:26:47;;;;;;;3.03;2.80;;;17.40;99.90;;;;;;6129083;23;20388;-84
2022/06/08 02:29:20;;;;;;;2.60;2.40;;;17.30;99.90;;;;;;6128505;23;20922;-83
2022/06/08 02:32:01;;;;;;;2.43;2.20;;;17.30;99.90;;;;;;6131883;23;20396;-83
2022/06/08 02:34:36;;;;;;;3.00;2.37;;;17.30;99.90;;;;;;6131558;23;20748;-83
2022/06/08 02:37:15;;;;;;;3.13;2.93;;;17.40;99.90;;;;;;6138112;23;20455;-83
2022/06/08 02:39:51;;;;;;;2.83;2.63;;;17.30;99.90;;;;;;6131841;23;20578;-83
2022/06/08 02:42:38;;;;;;;5.70;2.73;;;17.20;99.90;;;;;;6134263;23;20471;-82
2022/06/08 02:45:25;;;;;;;2.80;2.60;;;17.00;99.90;;;;;;6138601;23;20443;-83
2022/06/08 02:47:57;;;;;;;3.63;2.80;;;17.00;99.90;;;;;;6136623;23;20388;-82
2022/06/08 02:50:26;;;;;;;3.13;2.70;;;16.80;99.90;;;;;;6104663;23;20416;-82
2022/06/08 02:53:24;;;;;;;2.77;2.27;;;16.80;99.90;;;;;;6129322;23;20410;-83
2022/06/08 02:55:55;;;;;;;3.00;2.60;;;16.80;99.90;;;;;;6104213;23;20498;-83
2022/06/08 02:58:36;;;;;;;3.63;3.03;;;16.90;99.90;;;;;;6130318;23;20394;-82
2022/06/08 03:01:13;;;;;;;3.00;2.13;;;16.80;99.90;;;;;;6130445;23;20436;-83
2022/06/08 03:03:45;;;;;;;2.60;2.40;;;16.60;99.90;;;;;;6131120;23;20384;-84
2022/06/08 03:06:17;;;;;;;2.87;2.60;;;16.60;99.90;;;;;;6129921;23;20419;-83
2022/06/08 03:08:55;;;;;;;2.97;2.20;;;16.70;99.90;;;;;;6145179;23;20427;-81
2022/06/08 03:11:24;;;;;;;3.80;2.10;;;16.70;99.90;;;;;;6147275;23;20428;-82
2022/06/08 03:13:56;;;;;;;7.37;3.60;;;16.80;99.90;;;;;;6144489;23;20422;-83
2022/06/08 03:16:29;;;;;;;6.20;2.63;;;16.70;99.90;;;;;;6142607;23;20384;-81
2022/06/08 03:18:56;;;;;;;3.47;3.00;;;16.60;99.90;;;;;;6124100;23;20408;-82
2022/06/08 03:21:23;;;;;;;5.10;3.00;;;16.60;99.90;;;;;;6141012;23;20438;-84
2022/06/08 03:23:50;;;;;;;4.87;3.10;;;16.60;99.90;;;;;;6110081;23;20416;-83
2022/06/08 03:26:19;;;;;;;8.00;2.90;;;16.60;99.90;;;;;;6134409;23;20418;-83
2022/06/08 03:28:46;;;;;;;3.60;3.30;;;16.60;99.90;;;;;;6106382;23;20490;-84
2022/06/08 03:31:13;;;;;;;3.50;2.83;;;16.60;99.90;;;;;;6131573;23;20438;-83
2022/06/08 03:33:39;;;;;;;3.67;2.70;;;16.80;99.90;;;;;;6131254;23;20439;-83
2022/06/08 03:36:07;;;;;;;2.60;2.40;;;16.80;99.90;;;;;;6130508;23;20427;-83
2022/06/08 03:38:34;;;;;;;2.90;2.70;;;16.80;99.90;;;;;;6127786;23;20428;-83
2022/06/08 03:41:01;;;;;;;6.40;3.17;;;16.90;99.90;;;;;;6130286;23;20424;-83
2022/06/08 03:43:27;;;;;;;2.33;2.10;;;16.90;99.90;;;;;;6131439;23;20494;-83
2022/06/08 03:45:58;;;;;;;2.50;2.30;;;16.90;99.90;;;;;;6128555;23;20439;-83
2022/06/08 03:48:27;;;;;;;3.17;2.40;;;16.90;99.90;;;;;;6104975;23;20392;-83
2022/06/08 03:50:55;;;;;;;1.93;1.83;;;16.70;99.90;;;;;;6129311;23;20754;-83
2022/06/08 03:53:47;;;;;;;2.30;2.10;;;16.70;99.90;;;;;;6105208;23;20831;-83
2022/06/08 03:56:16;;;;;;;2.03;1.93;;;17.00;99.90;;;;;;6110870;23;20396;-83
2022/06/08 03:58:43;;;;;;;2.30;2.10;;;16.90;99.90;;;;;;6131470;23;20412;-83
2022/06/08 04:01:11;;;;;;;2.90;2.50;;;17.10;99.90;;;;;;6129936;23;20436;-83
2022/06/08 04:03:38;;;;;;;5.00;2.20;;;17.10;99.90;;;;;;6137373;23;20400;-83
2022/06/08 04:06:05;;;;;;;2.53;2.33;;;17.00;99.90;;;;;;6105719;23;20439;-83
2022/06/08 04:08:32;;;;;;;4.00;2.63;;;17.20;99.90;;;;;;6130086;23;20376;-82
2022/06/08 04:10:59;;;;;;;2.90;2.10;;;17.20;99.90;;;;;;6133673;23;20558;-83
2022/06/08 04:13:25;;;;;;;4.10;2.17;;;17.10;99.90;;;;;;6111198;23;20464;-83
2022/06/08 04:15:54;;;;;;;2.43;2.23;;;17.00;99.90;;;;;;6131176;23;20443;-83
2022/06/08 04:18:23;;;;;;;3.57;2.60;;;16.90;99.90;;;;;;6109268;23;20428;-82
2022/06/08 04:20:52;;;;;;;4.70;3.00;;;16.90;99.90;;;;;;6131411;23;20428;-82
2022/06/08 04:23:21;;;;;;;2.80;2.50;;;16.80;99.90;;;;;;6130745;23;20411;-83
2022/06/08 04:25:49;;;;;;;4.37;2.90;;;16.80;99.90;;;;;;6129927;23;20450;-83
2022/06/08 04:28:17;;;;;;;2.60;2.40;;;16.80;99.90;;;;;;6128430;23;20408;-83
2022/06/08 04:30:44;;;;;;;2.83;2.63;;;16.80;99.90;;;;;;6129560;23;20440;-83
2022/06/08 04:33:11;;;;;;;3.20;2.90;;;16.80;99.90;;;;;;6103936;23;20459;-83
2022/06/08 04:35:38;;;;;;;3.13;2.83;;;16.80;99.90;;;;;;6128015;23;20729;-82
2022/06/08 04:38:06;;;;;;;2.97;2.77;;;16.70;99.90;;;;;;6128763;23;20411;-83
2022/06/08 04:40:34;;;;;;;3.47;2.70;;;16.70;99.90;;;;;;6103567;23;20443;-82
2022/06/08 04:43:01;;;;;;;5.23;2.33;;;16.70;99.90;;;;;;6131099;23;20408;-82
2022/06/08 04:45:28;;;;;;;4.20;2.60;;;16.70;99.90;;;;;;6129972;23;20443;-82
2022/06/08 04:47:55;;;;;;;3.00;2.70;;;16.80;99.90;;;;;;6128064;23;20412;-82
2022/06/08 04:50:25;;;;;;;8.60;3.63;;;16.70;99.90;;;;;;6130865;23;20474;-83
2022/06/08 04:52:52;;;;;;;10.33;3.70;;;16.80;99.90;;;;;;6131144;23;20470;-84
2022/06/08 04:55:18;;;;;;;6.30;3.37;;;16.80;99.90;;;;;;6143362;23;20703;-83
2022/06/08 04:57:45;;;;;;;6.60;3.67;;;16.90;99.90;;;;;;6147576;23;20451;-83
2022/06/08 05:00:16;;;;;;;5.27;3.67;;;17.10;99.90;;;;;;6148806;23;20435;-83
2022/06/08 05:02:47;;;;;;;7.10;3.67;;;17.10;99.90;;;;;;6135723;23;20406;-83
2022/06/08 05:05:21;;;;;;;7.63;3.00;;;17.00;99.90;;;;;;6130243;23;20436;-84
2022/06/08 05:07:48;;;;;;;4.93;2.83;;;17.20;99.90;;;;;;6129524;23;20507;-83
2022/06/08 05:10:16;;;;;;;3.70;3.40;;;17.20;99.90;;;;;;6129531;23;20428;-84
2022/06/08 05:12:43;;;;;;;3.20;2.90;;;17.30;99.90;;;;;;6130096;23;20408;-83
2022/06/08 05:15:15;;;;;;;5.50;3.13;;;17.20;99.90;;;;;;6128854;23;20411;-84
2022/06/08 05:17:42;;;;;;;4.57;2.10;;;17.20;99.90;;;;;;6129545;23;20407;-84
2022/06/08 05:20:11;;;;;;;3.70;2.60;;;17.30;99.90;;;;;;6130072;23;20435;-84
2022/06/08 05:22:38;;;;;;;2.33;2.20;;;17.30;99.90;;;;;;6103672;23;20426;-84
2022/06/08 05:25:08;;;;;;;4.73;2.40;;;17.30;99.90;;;;;;6131568;23;20450;-84
2022/06/08 05:27:35;;;;;;;2.73;2.53;;;17.30;99.90;;;;;;6143539;23;20475;-84
2022/06/08 05:30:02;;;;;;;3.30;2.30;;;17.20;99.90;;;;;;6144774;23;20424;-83
2022/06/08 05:32:29;;;;;;;3.23;2.07;;;17.30;99.90;;;;;;6144669;23;20418;-84
2022/06/08 05:34:55;;;;;;;3.20;2.90;;;17.30;99.90;;;;;;6139081;23;20534;-81
2022/06/08 05:37:22;;;;;;;3.70;2.70;;;17.30;99.90;;;;;;6141344;23;20415;-82
2022/06/08 05:39:49;;;;;;;5.00;2.60;;;17.40;99.90;;;;;;6115285;23;20435;-82
2022/06/08 05:42:15;;;;;;;2.57;2.37;;;17.40;99.90;;;;;;6137846;23;20420;-81
2022/06/08 05:44:42;;;;;;;3.20;2.77;;;17.50;99.90;;;;;;6132582;23;20515;-81
2022/06/08 05:47:09;;;;;;;3.90;2.93;;;17.60;99.90;;;;;;6131883;23;20407;-82
2022/06/08 05:49:35;;;;;;;4.17;3.80;;;17.60;99.90;;;;;;6131444;23;20428;-82
2022/06/08 05:52:04;;;;;;;3.33;2.60;;;17.40;99.90;;;;;;6130540;23;20416;-83
2022/06/08 05:54:32;;;;;;;4.53;3.80;;;17.50;99.90;;;;;;6104999;23;20418;-82
2022/06/08 05:56:59;;;;;;;5.90;2.77;;;17.90;99.90;;;;;;6129523;23;20403;-82
2022/06/08 05:59:26;;;;;;;4.10;2.80;;;18.10;99.90;;;;;;6132218;23;20431;-83
2022/06/08 06:01:53;;;;;;;4.13;3.00;;;18.30;99.90;;;;;;6145747;23;20415;-81
2022/06/08 06:04:20;;;;;;;2.63;2.40;;;18.00;99.90;;;;;;6131523;23;20392;-82
2022/06/08 06:06:47;;;;;;;3.77;2.37;;;18.10;99.90;;;;;;6130054;23;20451;-83
2022/06/08 06:09:16;;;;;;;3.63;2.97;;;18.30;99.90;;;;;;6129606;23;20929;-84
2022/06/08 06:11:43;;;;;;;3.53;2.60;;;18.20;99.90;;;;;;6136892;23;20412;-83
2022/06/08 06:14:10;;;;;;;2.83;2.63;;;18.50;99.90;;;;;;6130634;23;20422;-84
2022/06/08 06:16:37;;;;;;;3.40;2.20;;;18.40;99.90;;;;;;6105325;23;20730;-83
2022/06/08 06:19:04;;;;;;;3.90;2.37;;;18.30;99.90;;;;;;6130661;23;20418;-84
2022/06/08 06:21:31;;;;;;;3.90;1.93;;;18.20;99.90;;;;;;6131428;23;20747;-84
2022/06/08 06:24:00;;;;;;;2.37;2.20;;;18.50;99.90;;;;;;6129775;23;20412;-83
2022/06/08 06:26:27;;;;;;;3.47;2.53;;;18.60;99.90;;;;;;6129816;23;20436;-83
2022/06/08 06:28:54;;;;;;;2.40;2.20;;;18.60;99.90;;;;;;6104810;23;20427;-83
2022/06/08 06:31:28;;;;;;;6.40;2.40;;;18.60;99.90;;;;;;6140675;23;20423;-81
2022/06/08 06:33:55;;;;;;;2.30;2.10;;;18.30;99.90;;;;;;6144990;23;20407;-79
2022/06/08 06:36:21;;;;;;;3.93;2.37;;;18.30;99.90;;;;;;6141460;23;20402;-82
2022/06/08 06:38:48;;;;;;;4.00;2.40;;;18.70;99.90;;;;;;6134494;23;20437;-83
2022/06/08 06:41:16;;;;;;;2.17;2.00;;;18.90;99.90;;;;;;6135908;23;20436;-83
2022/06/08 06:43:43;;;;;;;5.70;2.17;;;18.90;99.90;;;;;;6135774;23;20419;-83
2022/06/08 06:46:11;;;;;;;2.40;2.00;;;18.90;99.90;;;;;;6134666;23;20526;-84
2022/06/08 06:48:39;;;;;;;2.93;2.10;;;18.80;99.90;;;;;;6107443;23;20408;-84
2022/06/08 06:51:06;;;;;;;2.63;2.20;;;18.80;99.90;;;;;;6129645;23;20442;-83
2022/06/08 06:53:33;;;;;;;2.13;1.93;;;18.90;99.90;;;;;;6104754;23;20407;-84
2022/06/08 06:56:00;;;;;;;2.37;2.17;;;19.20;99.90;;;;;;6129009;23;20396;-81
2022/06/08 06:58:27;;;;;;;4.67;2.43;;;19.40;99.90;;;;;;6128891;23;20422;-82
2022/06/08 07:00:58;;;;;;;2.03;1.93;;;19.30;99.90;;;;;;6129047;23;20435;-83
2022/06/08 07:03:24;;;;;;;5.00;2.20;;;19.10;99.90;;;;;;6129529;23;20826;-83
2022/06/08 07:05:51;;;;;;;2.20;1.70;;;19.10;99.90;;;;;;6127455;23;20439;-84
2022/06/08 07:08:18;;;;;;;2.23;2.03;;;19.10;99.90;;;;;;6128642;23;20399;-82
2022/06/08 07:11:32;;;;;;;2.30;2.10;;;19.00;99.90;;;;;;6130769;23;20619;-84
2022/06/08 07:13:32;;;;;;;2.77;2.00;;;19.20;99.90;;;;;;6130546;23;20404;-82
2022/06/08 07:15:59;;;;;;;2.40;2.20;;;19.20;99.90;;;;;;6131549;23;20407;-83
2022/06/08 07:18:26;;;;;;;3.17;2.33;;;18.90;99.90;;;;;;6132128;23;20411;-82
2022/06/08 07:20:54;;;;;;;2.70;2.23;;;18.70;99.90;;;;;;6132157;23;20477;-83
2022/06/08 07:23:21;;;;;;;2.33;2.13;;;18.80;99.90;;;;;;6104520;23;20443;-82
2022/06/08 07:25:50;;;;;;;2.10;1.90;;;18.90;99.90;;;;;;6129358;23;20482;-82
2022/06/08 07:28:16;;;;;;;5.77;2.20;;;18.90;99.90;;;;;;6105273;23;20494;-84
2022/06/08 07:30:43;;;;;;;4.60;2.13;;;19.00;99.90;;;;;;6128868;23;20786;-84
2022/06/08 07:33:12;;;;;;;4.20;2.10;;;19.00;99.90;;;;;;6130616;23;20416;-82
2022/06/08 07:35:39;;;;;;;4.57;2.90;;;19.00;99.90;;;;;;6131001;23;20778;-84
2022/06/08 07:38:07;;;;;;;2.40;2.10;;;19.00;99.90;;;;;;6130345;23;20411;-82
2022/06/08 07:40:34;;;;;;;3.37;1.70;;;19.00;99.90;;;;;;6103972;23;20436;-81
2022/06/08 07:43:06;;;;;;;2.10;1.90;;;19.00;99.90;;;;;;6130661;23;20772;-82
2022/06/08 07:45:34;;;;;;;3.23;2.07;;;19.00;99.90;;;;;;6141971;23;20435;-84
2022/06/08 07:50:46;;;;;;;2.90;2.00;;;19.10;99.90;;;;;;6130572;23;20427;-84
2022/06/08 07:53:13;;;;;;;4.00;1.97;;;19.20;99.90;;;;;;6104590;23;20418;-83
2022/06/08 07:55:40;;;;;;;5.03;2.00;;;19.30;99.90;;;;;;6103872;23;20434;-83
2022/06/08 07:58:09;;;;;;;2.50;2.30;;;19.40;99.90;;;;;;6129023;23;20503;-83
2022/06/08 08:00:35;;;;;;;2.00;1.90;;;19.60;99.90;;;;;;6129227;23;20439;-84
2022/06/08 08:03:04;;;;;;;2.60;2.30;;;19.60;99.90;;;;;;6129168;23;20422;-84
2022/06/08 08:05:37;;;;;;;4.60;3.13;;;19.80;99.90;;;;;;6128422;23;20427;-82
2022/06/08 08:08:04;;;;;;;3.13;1.57;;;19.80;99.90;;;;;;6128869;23;20412;-83
2022/06/08 08:10:31;;;;;;;3.73;1.80;;;20.40;99.90;;;;;;6128439;23;20442;-84
2022/06/08 08:12:57;;;;;;;2.13;1.83;;;20.50;99.90;;;;;;6128570;23;20415;-83
2022/06/08 08:15:26;;;;;;;2.27;2.10;;;20.60;99.90;;;;;;6102500;23;20416;-84
2022/06/08 08:17:54;;;;;;;1.70;1.60;;;20.60;99.90;;;;;;6127209;23;20857;-82
2022/06/08 08:20:24;;;;;;;2.57;1.80;;;20.50;99.90;;;;;;6127277;23;20462;-84
2022/06/08 08:22:51;;;;;;;1.50;1.40;;;20.80;99.90;;;;;;6128076;23;21041;-84
2022/06/08 08:25:18;;;;;;;3.10;2.00;;;21.10;99.90;;;;;;6127572;23;20451;-82
2022/06/08 08:27:46;;;;;;;3.63;2.10;;;21.20;99.90;;;;;;6127785;23;20975;-82
2022/06/08 08:30:17;;;;;;;6.70;2.30;;;21.20;99.90;;;;;;6102131;23;20427;-81
2022/06/08 08:32:44;;;;;;;4.10;1.80;;;21.30;99.90;;;;;;6127577;23;20422;-82
2022/06/08 08:35:12;;;;;;;2.80;1.60;;;21.40;98.80;;;;;;6126712;23;20418;-82
2022/06/08 08:37:39;;;;;;;4.17;1.50;;;21.50;98.40;;;;;;6126612;23;20907;-80
2022/06/08 08:40:32;;;;;;;2.33;1.63;;;21.60;98.20;;;;;;6127438;23;20436;-80
2022/06/08 08:42:59;;;;;;;2.40;1.50;;;22.20;96.90;;;;;;6131609;23;20487;-82
2022/06/08 08:45:29;;;;;;;4.30;2.10;;;22.30;96.00;;;;;;6107605;23;20440;-83
2022/06/08 08:48:51;;;;;;;2.57;1.70;;;22.30;95.40;;;;;;6122041;23;20508;-80
2022/06/08 08:51:22;;;;;;;52.07;39.37;;;23.00;95.40;;;;;;5981009;24;20440;-81
2022/06/08 08:54:28;;;;;;;2.70;1.73;;;23.20;92.10;;;;;;6140728;23;20412;-83
2022/06/08 08:57:04;;;;;;;2.03;1.30;;;23.50;91.90;;;;;;6132672;23;20475;-83
2022/06/08 08:59:32;;;;;;;4.03;1.30;;;24.00;90.50;;;;;;6132958;23;20432;-80
2022/06/08 09:01:59;;;;;;;3.60;1.70;;;24.10;89.60;;;;;;6150424;23;20396;-82
2022/06/08 09:04:36;;;;;;;2.20;1.10;;;24.60;87.30;;;;;;6154043;23;20446;-82
2022/06/08 09:07:14;;;;;;;1.83;1.20;;;24.90;86.30;;;;;;6152924;23;20431;-82
2022/06/08 09:09:44;;;;;;;4.13;2.40;;;25.10;84.30;;;;;;6153499;23;20423;-83
2022/06/08 09:12:16;;;;;;;3.00;1.70;;;24.80;85.20;;;;;;6153194;23;20400;-84
2022/06/08 09:14:57;;;;;;;2.43;1.53;;;24.80;86.70;;;;;;6127844;23;20439;-83
2022/06/08 09:17:32;;;;;;;1.50;1.40;;;24.70;89.90;;;;;;6125543;23;20422;-82
2022/06/08 09:20:03;;;;;;;3.60;1.50;;;24.60;89.90;;;;;;6128690;23;20431;-82
2022/06/08 09:22:31;;;;;;;5.60;2.13;;;24.20;90.70;;;;;;6130395;23;20404;-82
2022/06/08 09:25:10;;;;;;;1.53;1.43;;;24.00;90.00;;;;;;6101947;23;20789;-83
2022/06/08 09:27:55;;;;;;;2.47;1.20;;;23.80;89.40;;;;;;6127325;23;20927;-83
2022/06/08 09:30:28;;;;;;;3.77;1.53;;;23.20;89.70;;;;;;6135973;23;20443;-83
2022/06/08 09:33:17;;;;;;;2.13;1.53;;;23.10;90.60;;;;;;6136329;23;20435;-82
2022/06/08 09:35:57;;;;;;;3.97;1.57;;;23.20;90.00;;;;;;6127278;23;20416;-82
2022/06/08 09:38:27;;;;;;;2.50;1.57;;;23.30;90.50;;;;;;6099935;23;20402;-81
2022/06/08 09:41:14;;;;;;;3.60;1.70;;;23.40;90.60;;;;;;6126555;23;20443;-82
2022/06/08 09:44:04;;;;;;;2.63;1.43;;;23.60;90.10;;;;;;6128952;23;21200;-82
2022/06/08 09:52:40;;;;;;;4.17;1.70;;;22.60;90.60;;;;;;6133422;23;20406;-84
2022/06/08 09:55:35;;;;;;;2.43;1.97;;;22.70;90.80;;;;;;6140768;23;20420;-82
2022/06/08 09:58:29;;;;;;;4.57;1.40;;;22.60;91.10;;;;;;6133609;23;20491;-84
2022/06/08 10:01:27;;;;;;;4.37;2.00;;;22.60;91.70;;;;;;6133485;23;20455;-83
2022/06/08 10:04:35;;;;;;;3.73;2.27;;;22.60;91.10;;;;;;6108012;23;20416;-83
2022/06/08 10:07:19;;;;;;;4.10;1.53;;;22.40;91.40;;;;;;6137148;23;20459;-83
2022/06/08 10:10:11;;;;;;;4.47;1.73;;;22.30;90.40;;;;;;6137925;23;20497;-84
2022/06/08 10:12:58;;;;;;;2.37;1.43;;;22.30;90.70;;;;;;6080173;23;20440;-82
2022/06/08 10:15:48;;;;;;;2.47;1.80;;;22.00;91.20;;;;;;6138777;23;20404;-83
2022/06/08 10:18:17;;;;;;;6.97;2.10;;;22.10;91.70;;;;;;6132871;23;20503;-82
2022/06/08 10:20:55;;;;;;;3.40;1.80;;;22.50;89.90;;;;;;6133289;23;20431;-84
2022/06/08 10:23:35;;;;;;;3.67;1.63;;;22.70;87.60;;;;;;6112069;23;20394;-83
2022/06/08 10:26:28;;;;;;;2.57;1.60;;;22.70;88.00;;;;;;6111298;23;20431;-84
2022/06/08 10:29:22;;;;;;;2.83;1.73;;;22.40;89.00;;;;;;6132223;23;20388;-84
2022/06/08 10:32:18;;;;;;;4.40;1.23;;;22.40;88.90;;;;;;6132856;23;20400;-84
2022/06/08 10:34:52;;;;;;;2.53;1.17;;;22.30;88.50;;;;;;6132468;23;20403;-84
2022/06/08 10:37:24;;;;;;;2.30;1.20;;;22.20;89.60;;;;;;6131934;23;20400;-84
2022/06/08 10:39:51;;;;;;;3.40;1.57;;;22.60;87.90;;;;;;6133648;23;20459;-83
2022/06/08 10:42:42;;;;;;;3.47;1.30;;;22.80;87.10;;;;;;6137540;23;20399;-83
2022/06/08 10:45:26;;;;;;;6.43;1.73;;;22.50;87.60;;;;;;6144367;23;20388;-83
2022/06/08 10:47:58;;;;;;;3.90;1.43;;;22.70;87.20;;;;;;6137214;23;20403;-84
2022/06/08 10:50:34;;;;;;;2.17;1.10;;;22.70;86.50;;;;;;6135243;23;20423;-84
2022/06/08 10:56:26;;;;;;;3.43;1.60;;;22.20;88.10;;;;;;6136156;23;20392;-84
2022/06/08 10:59:24;;;;;;;3.97;1.40;;;22.20;88.70;;;;;;6147844;23;20463;-84
2022/06/08 11:02:03;;;;;;;4.07;1.57;;;22.40;88.50;;;;;;6128985;23;20399;-83
2022/06/08 11:04:30;;;;;;;2.70;1.47;;;22.20;89.10;;;;;;6153437;23;20379;-83
2022/06/08 11:06:59;;;;;;;4.17;1.70;;;21.90;90.80;;;;;;6153011;23;20431;-83
2022/06/08 11:09:34;;;;;;;5.37;2.00;;;21.60;91.70;;;;;;6152241;23;20416;-82
2022/06/08 11:12:04;;;;;;;2.30;2.10;;;21.50;92.60;;;;;;6152254;23;20423;-83
2022/06/08 11:14:43;;;;;;;3.17;1.57;;;21.30;94.10;;;;;;6150793;23;20396;-83
2022/06/08 11:17:15;;;;;;;3.90;1.63;;;21.00;95.40;;;;;;6150676;23;20415;-80
2022/06/08 11:19:44;;;;;;;5.97;2.17;;;20.80;96.80;;;;;;6152983;23;20483;-83
2022/06/08 11:22:25;;;;;;;3.77;2.03;;;21.00;97.70;;;;;;6153433;23;20490;-80
2022/06/08 11:24:54;;;;;;;3.60;1.90;;;21.00;98.80;;;;;;6145976;23;20695;-84
2022/06/08 11:27:37;;;;;;;2.27;1.40;;;21.00;99.20;;;;;;6107135;23;20499;-83
2022/06/08 11:30:23;;;;;;;2.93;1.63;;;20.80;99.10;;;;;;6130854;23;20431;-83
2022/06/08 11:32:53;;;;;;;5.47;2.27;;;20.70;99.40;;;;;;6130525;23;20419;-84
2022/06/08 11:35:41;;;;;;;3.50;1.90;;;20.60;99.90;;;;;;6130834;23;20408;-82
2022/06/08 11:38:17;;;;;;;4.90;2.23;;;20.80;99.60;;;;;;6130864;23;20430;-82
2022/06/08 11:40:44;;;;;;;4.53;1.70;;;20.60;99.90;;;;;;6130107;23;20418;-84
2022/06/08 11:43:14;;;;;;;4.43;2.13;;;20.50;99.90;;;;;;6130670;23;20438;-81
2022/06/08 11:45:52;;;;;;;3.80;2.50;;;20.40;99.90;;;;;;6130233;23;20400;-81
2022/06/08 11:48:23;;;;;;;8.70;2.97;;;20.60;99.90;;;;;;6104427;23;20410;-81
2022/06/08 11:51:01;;;;;;;2.90;2.50;;;20.90;99.90;;;;;;6105666;23;20427;-81
2022/06/08 11:53:35;;;;;;;2.83;2.20;;;20.90;99.90;;;;;;6131225;23;20396;-82
2022/06/08 11:56:25;;;;;;;4.97;2.80;;;21.00;99.90;;;;;;6130821;23;20451;-83
2022/06/08 11:59:05;;;;;;;3.17;2.40;;;20.80;99.90;;;;;;6130858;23;20396;-82
2022/06/08 12:01:38;;;;;;;5.63;2.90;;;20.50;99.90;;;;;;6129975;23;20450;-84
2022/06/08 12:04:11;;;;;;;7.03;2.90;;;20.50;99.90;;;;;;6132854;23;20392;-82
2022/06/08 12:06:40;;;;;;;5.67;2.20;;;20.50;99.90;;;;;;6148077;23;20443;-83
2022/06/08 12:09:12;;;;;;;5.30;2.37;;;20.70;99.90;;;;;;6151761;23;20447;-83
2022/06/08 12:11:44;;;;;;;4.53;2.30;;;20.60;99.90;;;;;;6137897;23;21120;-82
2022/06/08 12:14:23;;;;;;;2.20;2.00;;;20.50;99.90;;;;;;6130538;23;20410;-82
2022/06/08 12:17:04;;;;;;;2.93;1.83;;;20.40;99.90;;;;;;6129172;23;20418;-83
2022/06/08 12:19:46;;;;;;;4.50;1.60;;;20.70;99.90;;;;;;6129739;23;20436;-84
2022/06/08 12:22:20;;;;;;;4.43;2.00;;;21.00;99.90;;;;;;6104265;23;20411;-83
2022/06/08 12:25:13;;;;;;;3.43;2.70;;;21.00;99.90;;;;;;6129277;23;20427;-83
2022/06/08 12:27:44;;;;;;;6.60;2.00;;;20.90;99.90;;;;;;6103332;23;20935;-83
2022/06/08 12:30:43;;;;;;;4.40;1.40;;;20.50;99.90;;;;;;6129857;23;20536;-82
2022/06/08 12:33:16;;;;;;;2.53;1.87;;;20.20;99.90;;;;;;6080374;23;20419;-83
2022/06/08 12:36:18;;;;;;;3.27;1.63;;;20.40;99.90;;;;;;6128095;23;20931;-84
2022/06/08 12:39:00;;;;;;;5.20;2.23;;;20.50;99.90;;;;;;6128894;23;20402;-83
2022/06/08 12:41:45;;;;;;;5.00;1.77;;;20.60;99.90;;;;;;6129761;23;20432;-82
2022/06/08 12:44:19;;;;;;;2.67;1.80;;;20.60;99.90;;;;;;6129293;23;20732;-82
2022/06/08 12:46:58;;;;;;;2.90;1.70;;;20.50;99.90;;;;;;6128154;23;20445;-84
2022/06/08 12:49:38;;;;;;;6.80;3.00;;;20.50;99.90;;;;;;6103003;23;20388;-83
2022/06/08 12:52:33;;;;;;;2.70;2.00;;;20.50;99.90;;;;;;6104004;23;20404;-83
2022/06/08 12:55:01;;;;;;;2.60;1.90;;;20.50;99.90;;;;;;6130708;23;20395;-82
2022/06/08 12:57:31;;;;;;;4.07;2.00;;;20.40;99.90;;;;;;6102461;23;20420;-82
2022/06/08 13:00:03;;;;;;;2.53;1.73;;;20.40;99.90;;;;;;6103116;23;20432;-83
2022/06/08 13:02:37;;;;;;;3.17;1.37;;;20.40;99.60;;;;;;6129023;23;20411;-82
2022/06/08 13:05:17;;;;;;;2.20;2.00;;;20.20;99.90;;;;;;6103269;23;20392;-82
2022/06/08 13:07:46;;;;;;;3.50;2.07;;;20.10;99.90;;;;;;6132603;23;20466;-82
2022/06/08 13:10:13;;;;;;;3.20;1.83;;;20.20;99.90;;;;;;6139933;23;20474;-82
2022/06/08 13:13:09;;;;;;;2.90;1.83;;;20.40;99.90;;;;;;6128408;23;20411;-82
2022/06/08 13:15:39;;;;;;;2.23;1.83;;;20.70;99.90;;;;;;6126620;23;20434;-83
2022/06/08 13:18:07;;;;;;;3.03;1.60;;;20.60;99.90;;;;;;6128608;23;20407;-82
2022/06/08 13:20:37;;;;;;;2.70;1.83;;;20.50;99.90;;;;;;6128341;23;20911;-83
2022/06/08 13:23:04;;;;;;;4.13;1.83;;;20.80;99.90;;;;;;6130695;23;20400;-82
2022/06/08 13:25:34;;;;;;;2.83;2.10;;;20.60;99.80;;;;;;6127104;23;20743;-83
2022/06/08 13:28:06;;;;;;;3.27;2.03;;;20.60;99.90;;;;;;6104155;23;20444;-83